Alexandria Bay, New York
Current Conditions -  °F | °C
As of 11:58 PM on Monday 26 Jan 2015 (Local Time) from KGTB Reporting Station
Scattered Clouds Scattered Clouds  
Wind Chill: -13°   Ceiling: Unl
Heat Index:   Visibility: 10mi
Dew Point: -5°   Wind: 12mph
Humidity: 68%   Direction: 40°NE
Pressure: 29.98"   Gusts: NA
Location:  44.34°N, 75.92°W
Report Text: KGTB 270458Z AUTO 04010KT 10SM SCT042 M16/M21 A2998 RMK AO2 SLP170 T11601206 411221235
Loading
Personal Weather Stations






























Interactive Weather Map New forecast layout! Learn more

10-Day Weather Forecast

Advertisements
Track Severe Weather on mobile